Time;durP1;ratioP1;P1;durP2;ratioP2;P2;SDS_P1;SDS_P2;PMS_P1;PMS_P2;Temp;Humidity;BMP_temperature;BMP_pressure;BME280_temperature;BME280_humidity;BME280_pressure;Samples;Min_cycle;Max_cycle;Signal;HPM_P1;HPM_P2
2022/07/28 00:02:21;;;;;;;3.30;0.60;;;14.60;99.90;;;;;;5036061;28;20042;-70
2022/07/28 00:04:47;;;;;;;3.63;0.90;;;14.60;99.90;;;;;;5037025;28;20037;-70
2022/07/28 00:07:13;;;;;;;2.15;0.73;;;14.60;99.90;;;;;;5036793;28;20120;-70
2022/07/28 00:09:38;;;;;;;2.97;0.90;;;14.60;99.90;;;;;;5036565;28;20051;-70
2022/07/28 00:12:04;;;;;;;2.05;0.80;;;14.60;99.90;;;;;;5036624;28;20037;-70
2022/07/28 00:14:30;;;;;;;2.40;0.80;;;14.60;99.90;;;;;;5019171;28;20103;-70
2022/07/28 00:16:56;;;;;;;2.20;0.82;;;14.50;99.90;;;;;;5036527;28;20049;-70
2022/07/28 00:19:22;;;;;;;2.58;0.93;;;14.50;99.90;;;;;;5035769;28;20064;-70
2022/07/28 00:21:47;;;;;;;2.80;0.80;;;14.50;99.90;;;;;;5036639;28;20049;-70
2022/07/28 00:24:13;;;;;;;4.97;1.20;;;14.50;99.90;;;;;;5036757;28;20041;-70
2022/07/28 00:26:38;;;;;;;3.08;0.95;;;14.40;99.90;;;;;;5035385;28;20045;-70
2022/07/28 00:29:05;;;;;;;1.85;1.05;;;14.50;99.90;;;;;;5036753;28;20033;-70
2022/07/28 00:31:31;;;;;;;3.40;0.90;;;14.50;99.90;;;;;;5036302;28;20049;-70
2022/07/28 00:33:56;;;;;;;4.00;1.00;;;14.50;99.90;;;;;;5036693;28;20037;-70
2022/07/28 00:36:22;;;;;;;3.67;0.90;;;14.50;99.90;;;;;;5036288;28;20041;-71
2022/07/28 00:38:48;;;;;;;5.78;1.10;;;14.50;99.90;;;;;;5018853;28;20041;-70
2022/07/28 00:41:15;;;;;;;4.28;1.00;;;14.50;99.90;;;;;;5035099;28;20044;-70
2022/07/28 00:43:45;;;;;;;5.55;1.00;;;14.40;99.90;;;;;;5036164;28;20129;-70
2022/07/28 00:46:14;;;;;;;8.32;1.13;;;14.40;99.90;;;;;;5035600;28;20037;-70
2022/07/28 00:48:54;;;;;;;2.83;0.90;;;14.50;99.90;;;;;;5035383;28;20122;-70
2022/07/28 00:51:22;;;;;;;4.65;1.00;;;14.50;99.90;;;;;;5020398;28;20081;-70
2022/07/28 00:53:48;;;;;;;2.63;0.85;;;14.50;99.90;;;;;;5039345;28;20116;-71
2022/07/28 00:56:14;;;;;;;2.58;0.95;;;14.40;99.90;;;;;;5040191;28;20121;-70
2022/07/28 00:58:40;;;;;;;3.33;1.00;;;14.40;99.90;;;;;;5040510;28;20052;-70
2022/07/28 01:01:08;;;;;;;3.53;0.82;;;14.40;99.90;;;;;;5040177;28;20377;-70
2022/07/28 01:03:38;;;;;;;1.88;0.85;;;14.30;99.90;;;;;;5039389;28;20122;-70
2022/07/28 01:06:09;;;;;;;1.88;0.88;;;14.30;99.90;;;;;;5040080;28;20042;-70
2022/07/28 01:08:59;;;;;;;1.98;0.88;;;14.30;99.90;;;;;;5040132;28;20048;-71
2022/07/28 01:12:00;;;;;;;1.98;0.77;;;14.30;99.90;;;;;;5040146;28;20045;-70
2022/07/28 01:15:00;;;;;;;1.58;0.80;;;14.20;99.90;;;;;;5025441;28;20053;-70
2022/07/28 01:17:37;;;;;;;2.75;1.13;;;14.30;99.90;;;;;;5039270;28;20053;-70
2022/07/28 01:20:08;;;;;;;4.75;1.10;;;14.20;99.90;;;;;;5039403;28;20171;-70
2022/07/28 01:22:40;;;;;;;2.10;1.00;;;14.20;99.90;;;;;;5038695;28;20159;-70
2022/07/28 01:25:22;;;;;;;1.92;0.90;;;14.20;99.90;;;;;;5039659;28;20053;-71
2022/07/28 01:28:26;;;;;;;2.63;1.00;;;14.10;99.90;;;;;;5022099;28;20045;-70
2022/07/28 01:30:57;;;;;;;2.00;0.80;;;14.20;99.90;;;;;;4959589;29;20085;-70
2022/07/28 01:33:51;;;;;;;2.35;1.15;;;14.10;99.90;;;;;;4959501;29;20337;-70
2022/07/28 01:36:21;;;;;;;2.08;0.88;;;14.20;99.90;;;;;;5013074;28;20049;-70
2022/07/28 01:38:48;;;;;;;2.65;0.90;;;14.20;99.90;;;;;;5039514;28;20457;-70
2022/07/28 01:41:20;;;;;;;1.45;0.90;;;14.20;99.90;;;;;;5021698;28;20052;-70
2022/07/28 01:43:53;;;;;;;2.42;1.00;;;14.30;99.90;;;;;;5039309;28;20338;-71
2022/07/28 01:46:20;;;;;;;2.05;0.90;;;14.30;99.90;;;;;;5039919;28;20056;-70
2022/07/28 01:48:47;;;;;;;1.80;0.82;;;14.20;99.90;;;;;;5038491;28;20284;-70
2022/07/28 01:51:16;;;;;;;2.03;0.75;;;14.20;99.90;;;;;;5038401;28;20048;-70
2022/07/28 01:53:44;;;;;;;2.55;1.00;;;14.10;99.90;;;;;;5039529;28;20037;-70
2022/07/28 01:56:10;;;;;;;2.15;1.00;;;14.10;99.90;;;;;;5039205;28;20045;-71
2022/07/28 01:58:38;;;;;;;2.88;1.13;;;14.30;99.90;;;;;;5021696;28;20050;-70
2022/07/28 02:01:05;;;;;;;4.07;1.23;;;14.30;99.90;;;;;;5038897;28;20470;-70
2022/07/28 02:03:33;;;;;;;3.35;0.88;;;14.20;99.90;;;;;;5038280;28;20080;-70
2022/07/28 02:06:02;;;;;;;2.70;0.90;;;14.00;99.90;;;;;;5039031;28;20064;-70
2022/07/28 02:08:30;;;;;;;1.73;0.85;;;14.00;99.90;;;;;;5039006;28;20099;-70
2022/07/28 02:13:45;;;;;;;3.03;0.98;;;14.10;99.90;;;;;;5021510;28;20056;-70
2022/07/28 02:16:13;;;;;;;2.47;0.98;;;14.10;99.90;;;;;;5037803;28;20049;-70
2022/07/28 02:18:40;;;;;;;2.50;1.00;;;14.10;99.90;;;;;;5038554;28;20062;-70
2022/07/28 02:21:08;;;;;;;3.58;0.82;;;14.10;99.90;;;;;;5020807;28;20057;-70
2022/07/28 02:23:34;;;;;;;2.58;1.05;;;14.10;99.90;;;;;;5037963;28;20041;-70
2022/07/28 02:26:05;;;;;;;2.22;1.17;;;14.10;99.90;;;;;;5037833;28;20038;-70
2022/07/28 02:28:32;;;;;;;1.40;0.75;;;14.20;99.90;;;;;;5037682;28;20041;-70
2022/07/28 02:31:03;;;;;;;1.25;0.95;;;14.20;99.90;;;;;;5037842;28;20045;-70
2022/07/28 02:33:33;;;;;;;1.35;0.82;;;14.10;99.90;;;;;;5037562;28;20072;-70
2022/07/28 02:36:27;;;;;;;3.28;1.10;;;14.10;99.90;;;;;;5019951;28;20042;-70
2022/07/28 02:38:59;;;;;;;2.08;1.00;;;14.10;99.90;;;;;;5009364;28;20104;-70
2022/07/28 02:41:28;;;;;;;1.60;0.77;;;14.00;99.90;;;;;;5019670;28;20121;-70
2022/07/28 02:44:00;;;;;;;2.17;0.88;;;14.00;99.90;;;;;;5037514;28;20080;-70
2022/07/28 02:46:31;;;;;;;2.42;1.02;;;14.00;99.90;;;;;;5037982;28;20116;-70
2022/07/28 02:49:03;;;;;;;1.75;0.90;;;14.00;99.90;;;;;;5020518;28;20045;-70
2022/07/28 02:51:31;;;;;;;1.80;0.77;;;14.00;99.90;;;;;;5038496;28;20100;-70
2022/07/28 02:53:58;;;;;;;3.90;1.20;;;13.90;99.90;;;;;;5038225;28;20049;-70
2022/07/28 02:56:25;;;;;;;2.58;1.33;;;13.90;99.90;;;;;;5020449;28;20374;-70
2022/07/28 02:58:52;;;;;;;1.17;1.00;;;14.00;99.90;;;;;;5020516;28;20466;-70
2022/07/28 03:01:19;;;;;;;1.50;0.90;;;14.00;99.90;;;;;;5038188;28;20041;-70
2022/07/28 03:03:46;;;;;;;2.42;1.38;;;14.00;99.90;;;;;;5037204;28;20437;-70
2022/07/28 03:06:14;;;;;;;1.48;0.90;;;14.00;99.90;;;;;;5037116;28;20045;-70
2022/07/28 03:08:40;;;;;;;3.75;1.20;;;13.90;99.90;;;;;;5020381;28;20042;-70
2022/07/28 03:11:10;;;;;;;3.10;1.08;;;14.00;99.90;;;;;;5036777;28;20125;-70
2022/07/28 03:13:36;;;;;;;2.15;1.00;;;14.00;99.90;;;;;;5019947;28;20034;-70
2022/07/28 03:16:03;;;;;;;1.95;1.00;;;14.10;99.90;;;;;;5037799;28;20034;-70
2022/07/28 03:18:29;;;;;;;3.55;1.05;;;14.10;99.90;;;;;;5036786;28;20129;-70
2022/07/28 03:20:55;;;;;;;2.30;1.00;;;14.10;99.90;;;;;;5035961;28;20363;-70
2022/07/28 03:23:27;;;;;;;2.80;1.23;;;14.10;99.90;;;;;;5002471;28;20088;-70
2022/07/28 03:25:56;;;;;;;2.45;1.30;;;14.30;99.90;;;;;;5036610;28;20421;-70
2022/07/28 03:28:23;;;;;;;1.45;0.80;;;14.40;99.90;;;;;;5019004;28;20330;-70
2022/07/28 03:31:04;;;;;;;3.35;1.17;;;14.30;99.90;;;;;;5036234;28;20056;-70
2022/07/28 03:33:31;;;;;;;1.58;0.95;;;14.40;99.90;;;;;;5036027;28;20429;-70
2022/07/28 03:36:01;;;;;;;2.05;0.98;;;14.40;99.90;;;;;;5036214;28;20042;-70
2022/07/28 03:38:36;;;;;;;2.65;1.10;;;14.30;99.90;;;;;;5035943;28;20103;-71
2022/07/28 03:41:02;;;;;;;2.38;1.02;;;14.40;99.90;;;;;;5036009;28;20041;-70
2022/07/28 03:43:30;;;;;;;3.03;1.20;;;14.50;99.90;;;;;;5035022;28;20049;-70
2022/07/28 03:45:55;;;;;;;4.25;1.10;;;14.50;99.90;;;;;;5037435;28;20064;-70
2022/07/28 03:48:28;;;;;;;3.63;1.35;;;14.60;99.90;;;;;;5037050;28;20038;-70
2022/07/28 03:50:53;;;;;;;5.00;1.08;;;14.70;99.90;;;;;;5036535;28;20053;-70
2022/07/28 03:53:21;;;;;;;2.20;1.10;;;14.70;99.90;;;;;;5035951;28;20095;-70
2022/07/28 03:55:49;;;;;;;1.65;0.93;;;14.70;99.90;;;;;;5037071;28;20444;-70
2022/07/28 03:58:20;;;;;;;3.10;1.17;;;14.70;99.90;;;;;;5037024;28;20037;-70
2022/07/28 04:00:48;;;;;;;2.28;1.15;;;14.70;99.90;;;;;;5037109;28;20083;-70
2022/07/28 04:03:14;;;;;;;2.53;1.10;;;14.80;99.90;;;;;;5036793;28;20041;-70
2022/07/28 04:05:39;;;;;;;2.92;1.10;;;14.80;99.90;;;;;;5019424;28;20037;-70
2022/07/28 04:08:05;;;;;;;2.65;1.13;;;14.80;99.90;;;;;;5036880;28;20347;-71
2022/07/28 04:10:31;;;;;;;2.22;1.10;;;14.80;99.90;;;;;;5036801;28;20045;-70
2022/07/28 04:12:57;;;;;;;4.25;1.00;;;14.80;99.90;;;;;;5036565;28;20045;-70
2022/07/28 04:15:24;;;;;;;5.88;1.90;;;14.80;99.90;;;;;;5019220;28;20072;-70
2022/07/28 04:17:51;;;;;;;1.70;1.10;;;14.80;99.90;;;;;;5019121;28;20072;-70
2022/07/28 04:20:18;;;;;;;2.47;1.10;;;14.80;99.90;;;;;;5036279;28;20059;-70
2022/07/28 04:22:45;;;;;;;2.53;0.98;;;14.80;99.90;;;;;;5036726;28;20073;-70
2022/07/28 04:25:14;;;;;;;2.17;1.30;;;14.90;99.90;;;;;;5018638;28;20053;-70
2022/07/28 04:27:43;;;;;;;2.30;0.95;;;14.90;99.90;;;;;;5036494;28;20446;-70
2022/07/28 04:30:16;;;;;;;1.55;0.95;;;14.90;99.90;;;;;;5019089;28;20045;-70
2022/07/28 04:32:42;;;;;;;2.90;1.20;;;14.90;99.90;;;;;;5018928;28;20045;-70
2022/07/28 04:35:08;;;;;;;1.60;0.95;;;15.00;99.90;;;;;;5036327;28;20081;-70
2022/07/28 04:37:35;;;;;;;3.30;1.00;;;15.00;99.90;;;;;;5018865;28;20358;-70
2022/07/28 04:40:01;;;;;;;1.85;1.13;;;14.90;99.90;;;;;;5036193;28;20121;-70
2022/07/28 04:42:27;;;;;;;2.10;1.00;;;14.90;99.90;;;;;;5018823;28;20029;-70
2022/07/28 04:44:53;;;;;;;2.45;1.30;;;14.90;99.90;;;;;;5017503;28;20423;-70
2022/07/28 04:47:18;;;;;;;3.78;1.25;;;14.90;99.90;;;;;;5035625;28;20041;-70
2022/07/28 04:49:44;;;;;;;3.15;1.02;;;14.90;99.90;;;;;;5035755;28;20366;-70
2022/07/28 04:52:11;;;;;;;2.00;1.30;;;14.90;99.90;;;;;;5036523;28;20041;-70
2022/07/28 04:54:37;;;;;;;3.45;1.00;;;14.90;99.90;;;;;;5036222;28;20045;-70
2022/07/28 04:57:03;;;;;;;2.75;1.30;;;14.90;99.90;;;;;;5036491;28;20089;-70
2022/07/28 04:59:29;;;;;;;3.42;1.17;;;15.00;99.90;;;;;;5036147;28;20045;-70
2022/07/28 05:01:56;;;;;;;2.58;1.27;;;15.00;99.90;;;;;;5035981;28;20046;-70
2022/07/28 05:04:22;;;;;;;2.25;1.10;;;15.00;99.90;;;;;;5036239;28;20484;-70
2022/07/28 05:06:48;;;;;;;3.55;1.23;;;15.00;99.90;;;;;;5036049;28;20453;-70
2022/07/28 05:09:14;;;;;;;4.32;1.20;;;15.10;99.90;;;;;;5036137;28;20033;-70
2022/07/28 05:11:39;;;;;;;3.42;1.20;;;15.10;99.90;;;;;;5018606;28;20122;-70
2022/07/28 05:14:05;;;;;;;1.95;1.00;;;15.20;99.90;;;;;;5035908;28;20045;-71
2022/07/28 05:16:31;;;;;;;2.90;1.30;;;15.20;99.90;;;;;;5018783;28;20046;-70
2022/07/28 05:18:56;;;;;;;1.92;1.02;;;15.30;99.90;;;;;;5035733;28;20431;-70
2022/07/28 05:21:22;;;;;;;2.58;1.23;;;15.40;99.90;;;;;;5034586;28;20049;-70
2022/07/28 05:23:48;;;;;;;2.03;1.25;;;15.50;99.90;;;;;;5035005;28;20045;-70
2022/07/28 05:26:13;;;;;;;2.35;1.10;;;15.50;99.90;;;;;;5036079;28;20061;-70
2022/07/28 05:28:39;;;;;;;1.80;1.20;;;15.60;99.90;;;;;;5035848;28;20041;-70
2022/07/28 05:31:06;;;;;;;3.55;1.40;;;15.60;99.90;;;;;;5034654;28;20049;-70
2022/07/28 05:33:33;;;;;;;3.45;1.92;;;15.70;99.90;;;;;;5018364;28;20045;-70
2022/07/28 05:35:59;;;;;;;3.65;1.88;;;15.80;99.90;;;;;;5035775;28;20037;-70
2022/07/28 05:38:25;;;;;;;3.13;1.58;;;15.80;99.90;;;;;;5038184;28;20036;-70
2022/07/28 05:40:52;;;;;;;2.70;1.33;;;15.80;99.90;;;;;;5039450;28;20045;-70
2022/07/28 05:43:18;;;;;;;2.85;1.42;;;15.80;99.90;;;;;;5039404;28;20043;-70
2022/07/28 05:45:45;;;;;;;1.70;1.40;;;15.90;99.90;;;;;;5039372;28;20029;-70
2022/07/28 05:48:11;;;;;;;3.78;1.60;;;15.90;99.90;;;;;;5039687;28;20116;-70
2022/07/28 05:50:36;;;;;;;3.78;1.70;;;16.00;99.90;;;;;;5038818;28;20116;-70
2022/07/28 05:53:02;;;;;;;2.38;1.50;;;16.10;99.90;;;;;;5039005;28;20426;-70
2022/07/28 05:55:28;;;;;;;2.85;1.70;;;16.20;99.90;;;;;;5020535;28;20045;-70
2022/07/28 05:57:54;;;;;;;4.78;1.60;;;16.40;99.90;;;;;;5038098;28;20033;-70
2022/07/28 06:00:21;;;;;;;5.10;1.70;;;16.50;99.90;;;;;;5038615;28;20080;-70
2022/07/28 06:02:48;;;;;;;4.82;1.60;;;16.60;99.90;;;;;;5021553;28;20037;-70
2022/07/28 06:05:19;;;;;;;4.50;1.88;;;16.60;99.90;;;;;;5021643;28;20041;-70
2022/07/28 06:07:46;;;;;;;5.80;1.90;;;16.60;99.90;;;;;;5038979;28;20046;-70
2022/07/28 06:10:13;;;;;;;4.03;1.73;;;16.70;99.90;;;;;;5039065;28;20104;-70
2022/07/28 06:12:48;;;;;;;3.70;1.40;;;16.70;99.90;;;;;;5038720;28;20380;-70
2022/07/28 06:15:19;;;;;;;4.20;1.58;;;16.80;99.90;;;;;;5037970;28;20046;-70
2022/07/28 06:17:45;;;;;;;5.57;1.65;;;16.90;99.90;;;;;;5037816;28;20057;-70
2022/07/28 06:20:11;;;;;;;3.85;1.10;;;16.90;99.90;;;;;;5038003;28;20408;-70
2022/07/28 06:22:48;;;;;;;3.55;1.48;;;17.00;99.90;;;;;;5038865;28;20037;-70
2022/07/28 06:25:14;;;;;;;5.30;1.40;;;17.10;99.90;;;;;;5038632;28;20053;-72
2022/07/28 06:27:41;;;;;;;4.18;1.60;;;17.10;99.90;;;;;;5038872;28;20038;-70
2022/07/28 06:30:08;;;;;;;2.67;1.35;;;17.10;99.90;;;;;;5037794;28;20319;-70
2022/07/28 06:32:33;;;;;;;4.95;1.67;;;17.20;99.90;;;;;;5038592;28;20049;-70
2022/07/28 06:34:59;;;;;;;2.33;1.33;;;17.40;99.90;;;;;;5038755;28;20041;-70
2022/07/28 06:37:25;;;;;;;3.72;1.48;;;17.40;99.90;;;;;;5038460;28;20331;-70
2022/07/28 06:39:50;;;;;;;4.78;1.30;;;17.40;99.90;;;;;;5021095;28;20092;-71
2022/07/28 06:42:16;;;;;;;3.22;1.30;;;17.40;99.90;;;;;;5037264;28;20510;-70
2022/07/28 06:44:41;;;;;;;5.70;1.33;;;17.50;99.90;;;;;;5038580;28;20120;-70
2022/07/28 06:47:07;;;;;;;5.82;1.23;;;17.70;99.90;;;;;;5038239;28;20038;-70
2022/07/28 06:49:33;;;;;;;4.88;0.90;;;17.80;99.90;;;;;;5036297;28;20034;-70
2022/07/28 06:51:58;;;;;;;6.45;1.35;;;17.80;99.90;;;;;;5037017;28;20045;-70
2022/07/28 06:54:24;;;;;;;6.28;1.42;;;17.90;99.90;;;;;;5038047;28;20045;-70
2022/07/28 06:56:50;;;;;;;5.07;1.13;;;18.00;99.90;;;;;;5038292;28;20438;-70
2022/07/28 06:59:16;;;;;;;5.10;1.10;;;18.00;99.90;;;;;;5038111;28;20120;-70
2022/07/28 07:01:42;;;;;;;9.85;1.27;;;18.00;99.90;;;;;;5037940;28;20124;-70
2022/07/28 07:04:07;;;;;;;7.97;1.05;;;18.10;99.90;;;;;;5037816;28;20037;-70
2022/07/28 07:06:33;;;;;;;3.42;0.98;;;18.10;99.90;;;;;;5037830;28;20128;-70
2022/07/28 07:08:59;;;;;;;4.22;1.23;;;18.00;99.90;;;;;;5020220;28;20045;-70
2022/07/28 07:11:25;;;;;;;2.33;0.90;;;17.90;99.90;;;;;;5037587;28;20069;-70
2022/07/28 07:13:51;;;;;;;4.10;0.82;;;17.90;99.90;;;;;;5037734;28;20045;-67
2022/07/28 07:16:18;;;;;;;5.25;1.10;;;17.90;99.90;;;;;;5037766;28;20037;-68
2022/07/28 07:18:44;;;;;;;5.40;1.15;;;17.90;99.90;;;;;;5037775;28;20060;-68
2022/07/28 07:21:10;;;;;;;4.63;1.20;;;18.00;99.90;;;;;;5039623;28;20060;-72
2022/07/28 07:23:36;;;;;;;4.22;1.20;;;18.00;99.90;;;;;;5024451;28;20414;-68
2022/07/28 07:26:03;;;;;;;6.35;1.13;;;18.00;99.90;;;;;;5037406;28;20426;-69
2022/07/28 07:28:28;;;;;;;4.57;0.98;;;18.00;99.90;;;;;;5037808;28;20084;-67
2022/07/28 07:30:54;;;;;;;4.70;1.00;;;18.10;99.90;;;;;;5037461;28;20076;-68
2022/07/28 07:33:20;;;;;;;3.78;1.63;;;18.10;99.90;;;;;;5036479;28;20045;-68
2022/07/28 07:35:45;;;;;;;3.65;1.45;;;17.90;99.90;;;;;;5037393;28;20041;-68
2022/07/28 07:38:11;;;;;;;5.82;1.73;;;17.70;99.90;;;;;;5036500;28;20041;-68
2022/07/28 07:40:37;;;;;;;4.95;1.55;;;17.70;99.90;;;;;;5037377;28;20037;-68
2022/07/28 07:43:03;;;;;;;6.20;1.70;;;17.50;99.90;;;;;;5037321;28;20037;-68
2022/07/28 07:45:29;;;;;;;4.47;1.95;;;17.50;99.90;;;;;;5037434;28;20052;-68
2022/07/28 07:47:55;;;;;;;6.40;2.67;;;17.60;99.90;;;;;;5037181;28;20045;-68
2022/07/28 07:50:21;;;;;;;12.45;2.95;;;17.40;99.90;;;;;;5036622;28;20450;-68
2022/07/28 07:52:48;;;;;;;5.95;2.55;;;17.40;99.90;;;;;;5036989;28;20052;-67
2022/07/28 07:55:15;;;;;;;6.75;2.90;;;17.50;99.90;;;;;;5036691;28;20052;-69
2022/07/28 07:57:41;;;;;;;5.55;2.65;;;17.50;99.90;;;;;;5037210;28;20116;-68
2022/07/28 08:00:07;;;;;;;9.93;2.33;;;17.60;99.90;;;;;;5036172;28;20172;-68
2022/07/28 08:02:36;;;;;;;8.50;2.72;;;17.60;99.90;;;;;;5034761;28;20422;-69
2022/07/28 08:05:02;;;;;;;3.95;2.08;;;17.60;99.90;;;;;;5029035;28;20442;-68
2022/07/28 08:07:28;;;;;;;5.78;1.60;;;17.70;99.90;;;;;;5007165;28;20041;-69
2022/07/28 08:09:53;;;;;;;4.85;1.50;;;17.70;99.90;;;;;;5033227;28;20037;-68
2022/07/28 08:12:19;;;;;;;6.03;1.60;;;17.70;99.90;;;;;;5035971;28;20057;-69
2022/07/28 08:14:45;;;;;;;5.57;1.50;;;17.80;99.90;;;;;;5029769;28;20034;-68
2022/07/28 08:17:10;;;;;;;6.60;1.13;;;17.80;99.90;;;;;;4996882;28;20055;-69
2022/07/28 08:19:36;;;;;;;6.50;1.00;;;18.00;99.90;;;;;;5028221;28;20065;-69
2022/07/28 08:22:02;;;;;;;4.43;0.82;;;18.10;99.90;;;;;;5032964;28;20084;-68
2022/07/28 08:24:27;;;;;;;5.78;1.13;;;18.20;99.90;;;;;;5035358;28;20041;-70
2022/07/28 08:26:53;;;;;;;6.95;0.80;;;18.20;99.90;;;;;;5036356;28;20183;-68
2022/07/28 08:29:19;;;;;;;6.18;0.70;;;18.40;99.90;;;;;;5036756;28;20041;-68
2022/07/28 08:31:44;;;;;;;2.17;0.70;;;18.60;99.90;;;;;;5036487;28;20041;-69
2022/07/28 08:34:10;;;;;;;1.67;0.60;;;18.70;99.90;;;;;;5036629;28;20438;-68
2022/07/28 08:36:35;;;;;;;2.90;0.75;;;18.70;99.90;;;;;;5036358;28;20431;-68
2022/07/28 08:39:01;;;;;;;1.55;0.70;;;18.60;99.90;;;;;;5036387;28;20046;-68
2022/07/28 08:41:47;;;;;;;3.40;0.60;;;18.70;99.90;;;;;;5036520;28;20040;-71
2022/07/28 08:44:23;;;;;;;3.10;0.93;;;18.60;99.90;;;;;;5036398;28;20075;-68
2022/07/28 08:46:49;;;;;;;4.15;0.73;;;18.60;99.90;;;;;;5036615;28;20424;-68
2022/07/28 08:49:16;;;;;;;3.05;0.80;;;18.70;99.90;;;;;;5036148;28;20098;-68
2022/07/28 08:51:46;;;;;;;4.15;0.80;;;18.70;99.90;;;;;;5035950;28;20128;-68
2022/07/28 08:54:15;;;;;;;2.38;0.52;;;18.80;99.90;;;;;;5036870;28;20434;-68
2022/07/28 08:56:42;;;;;;;2.17;0.70;;;18.70;99.90;;;;;;5036285;28;20053;-68
2022/07/28 08:59:08;;;;;;;2.65;0.50;;;18.70;99.90;;;;;;5036549;28;20041;-67
2022/07/28 09:01:35;;;;;;;3.03;1.05;;;18.90;99.90;;;;;;5036147;28;20049;-68
2022/07/28 09:04:02;;;;;;;4.97;0.80;;;18.90;99.90;;;;;;5036333;28;20050;-68
2022/07/28 09:06:28;;;;;;;2.75;1.00;;;18.90;99.90;;;;;;5036277;28;20045;-68
2022/07/28 09:08:54;;;;;;;3.70;0.85;;;19.20;99.90;;;;;;5036257;28;20099;-69
2022/07/28 09:11:19;;;;;;;1.80;0.60;;;19.30;99.90;;;;;;5036602;28;20361;-68
2022/07/28 09:13:45;;;;;;;2.90;0.70;;;19.50;99.90;;;;;;5039963;28;20159;-68
2022/07/28 09:16:13;;;;;;;1.92;0.50;;;19.60;99.60;;;;;;5039924;28;20090;-68
2022/07/28 09:18:39;;;;;;;5.10;0.65;;;19.60;99.40;;;;;;5039547;28;20057;-69
2022/07/28 09:21:05;;;;;;;4.30;0.60;;;19.70;99.60;;;;;;5039703;28;20037;-68
2022/07/28 09:23:48;;;;;;;2.45;0.50;;;19.60;99.20;;;;;;5039863;28;20045;-68
2022/07/28 09:26:16;;;;;;;4.03;0.50;;;19.70;99.20;;;;;;5039674;28;20121;-69
2022/07/28 09:28:56;;;;;;;1.88;0.60;;;19.60;99.40;;;;;;5040033;28;20041;-68
2022/07/28 09:31:24;;;;;;;1.95;0.70;;;19.70;99.00;;;;;;5022106;28;20121;-68
2022/07/28 09:34:00;;;;;;;2.15;0.80;;;19.70;99.00;;;;;;5039476;28;20509;-68
2022/07/28 09:36:29;;;;;;;5.53;0.63;;;19.80;99.10;;;;;;5039535;28;20422;-69
2022/07/28 09:38:55;;;;;;;3.60;0.50;;;20.10;99.00;;;;;;5039833;28;20041;-69
2022/07/28 09:41:22;;;;;;;2.70;0.88;;;20.10;98.70;;;;;;5039326;28;20337;-69
2022/07/28 09:43:50;;;;;;;5.03;0.68;;;20.10;98.80;;;;;;5039695;28;20052;-70
2022/07/28 09:46:21;;;;;;;4.90;0.93;;;20.10;98.80;;;;;;5039673;28;20041;-70
2022/07/28 09:48:59;;;;;;;3.83;0.70;;;20.20;98.90;;;;;;5038615;28;20103;-70
2022/07/28 09:51:31;;;;;;;3.35;0.88;;;20.20;99.00;;;;;;5038996;28;20418;-70
2022/07/28 09:54:10;;;;;;;4.88;1.10;;;20.40;99.10;;;;;;5039246;28;20048;-70
2022/07/28 09:56:42;;;;;;;2.33;0.63;;;20.70;98.70;;;;;;5039350;28;20084;-70
2022/07/28 09:59:08;;;;;;;3.83;0.50;;;20.90;98.90;;;;;;5021972;28;20418;-88
2022/07/28 10:01:57;;;;;;;5.47;0.75;;;20.70;98.60;;;;;;5038393;28;20136;-87
2022/07/28 10:04:37;;;;;;;2.42;0.40;;;19.80;98.60;;;;;;5003802;28;20095;-87
2022/07/28 10:07:14;;;;;;;3.30;0.70;;;19.30;98.70;;;;;;5037995;28;20037;-69
2022/07/28 10:09:40;;;;;;;3.97;0.70;;;19.50;99.00;;;;;;5039268;28;20042;-69
2022/07/28 10:12:25;;;;;;;4.03;0.47;;;19.70;99.00;;;;;;5039093;28;20037;-69
2022/07/28 10:14:53;;;;;;;2.42;0.60;;;20.00;98.70;;;;;;5038992;28;20088;-69
2022/07/28 10:17:25;;;;;;;1.67;0.43;;;20.30;98.50;;;;;;5021509;28;20033;-69
2022/07/28 10:19:53;;;;;;;1.42;0.50;;;20.50;98.40;;;;;;5038395;28;20045;-69
2022/07/28 10:22:21;;;;;;;2.95;0.45;;;20.60;98.20;;;;;;5039041;28;20038;-71
2022/07/28 10:24:51;;;;;;;2.80;0.60;;;20.80;98.50;;;;;;5038309;28;20136;-88
2022/07/28 10:27:19;;;;;;;3.95;0.90;;;20.30;98.10;;;;;;5005587;28;20041;-90
2022/07/28 10:29:46;;;;;;;3.30;0.60;;;20.00;98.40;;;;;;5005197;28;20468;-68
2022/07/28 10:32:11;;;;;;;3.08;0.60;;;20.30;98.80;;;;;;5038692;28;20044;-68
2022/07/28 10:34:44;;;;;;;3.83;0.60;;;20.80;98.40;;;;;;5038772;28;20038;-68
2022/07/28 10:37:17;;;;;;;5.32;0.82;;;21.00;98.30;;;;;;5038533;28;20037;-70
2022/07/28 10:39:50;;;;;;;3.58;0.60;;;21.30;98.00;;;;;;5038677;28;20042;-91
2022/07/28 10:42:18;;;;;;;2.13;0.70;;;21.40;97.60;;;;;;5005194;28;20039;-91
2022/07/28 10:44:45;;;;;;;1.55;0.68;;;20.50;97.90;;;;;;5005155;28;20046;-91
2022/07/28 10:47:12;;;;;;;4.38;0.70;;;19.90;98.00;;;;;;5005201;28;20088;-89
2022/07/28 10:49:41;;;;;;;2.20;0.55;;;19.90;98.60;;;;;;5021032;28;20041;-69
2022/07/28 10:52:07;;;;;;;1.90;0.60;;;20.00;98.10;;;;;;5038126;28;20038;-69
2022/07/28 10:54:44;;;;;;;4.95;0.65;;;20.20;98.30;;;;;;5038062;28;20041;-69
2022/07/28 10:57:11;;;;;;;2.75;0.60;;;20.60;98.00;;;;;;5038440;28;20037;-69
2022/07/28 11:00:00;;;;;;;0.98;0.43;;;20.70;97.50;;;;;;5038095;28;20037;-70
2022/07/28 11:02:45;;;;;;;2.70;0.60;;;21.00;97.60;;;;;;5038213;28;20048;-69
2022/07/28 11:05:27;;;;;;;3.47;0.50;;;21.50;97.60;;;;;;5038204;28;20049;-70
2022/07/28 11:07:54;;;;;;;1.65;0.60;;;21.60;97.10;;;;;;5037946;28;20080;-68
2022/07/28 11:10:20;;;;;;;2.22;0.70;;;21.80;97.40;;;;;;5038109;28;20124;-72
2022/07/28 11:12:54;;;;;;;6.30;0.80;;;21.80;97.30;;;;;;5037137;28;20443;-71
2022/07/28 11:15:32;;;;;;;3.45;0.70;;;21.60;97.70;;;;;;5037885;28;20103;-72
2022/07/28 11:18:09;;;;;;;3.78;0.70;;;21.80;97.80;;;;;;5037851;28;20381;-70
2022/07/28 11:20:55;;;;;;;3.30;0.60;;;21.80;97.90;;;;;;5037126;28;20441;-67
2022/07/28 11:23:39;;;;;;;4.78;0.43;;;21.80;98.00;;;;;;5037904;28;20044;-70
2022/07/28 11:26:34;;;;;;;3.20;0.60;;;21.70;98.10;;;;;;5038217;28;20124;-70
2022/07/28 11:28:59;;;;;;;4.45;0.70;;;21.40;98.50;;;;;;5032008;28;20382;-74
2022/07/28 11:31:43;;;;;;;4.53;0.73;;;20.90;98.20;;;;;;5037763;28;20094;-75
2022/07/28 11:34:20;;;;;;;3.45;0.52;;;20.70;98.60;;;;;;5019785;28;20492;-75
2022/07/28 11:37:06;;;;;;;1.90;0.40;;;20.60;98.70;;;;;;5037472;28;20042;-77
2022/07/28 11:39:37;;;;;;;3.13;0.50;;;20.50;98.50;;;;;;5019784;28;20045;-75
2022/07/28 11:42:25;;;;;;;1.15;0.47;;;20.50;98.70;;;;;;5019743;28;20077;-74
2022/07/28 11:44:50;;;;;;;3.55;0.50;;;20.50;98.80;;;;;;5020028;28;20362;-74
2022/07/28 11:47:21;;;;;;;4.38;0.57;;;20.60;98.50;;;;;;5036960;28;20037;-77
2022/07/28 11:50:09;;;;;;;2.33;0.40;;;20.40;98.40;;;;;;5036913;28;20038;-76
2022/07/28 11:52:35;;;;;;;3.22;0.80;;;20.60;98.90;;;;;;5019888;28;20045;-76
2022/07/28 11:55:02;;;;;;;3.00;0.45;;;20.70;98.70;;;;;;5036914;28;20427;-69
2022/07/28 11:57:28;;;;;;;2.35;0.50;;;20.60;98.20;;;;;;5037094;28;20440;-69
2022/07/28 11:59:56;;;;;;;3.88;0.73;;;20.80;98.10;;;;;;5036865;28;20377;-68
2022/07/28 12:02:27;;;;;;;2.22;0.52;;;21.00;97.70;;;;;;5035013;28;20042;-69
2022/07/28 12:05:04;;;;;;;1.35;0.70;;;21.50;97.80;;;;;;5035200;28;20034;-69
2022/07/28 12:07:33;;;;;;;1.63;0.40;;;22.00;97.40;;;;;;5019208;28;20124;-72
2022/07/28 12:09:59;;;;;;;2.13;0.50;;;22.90;97.30;;;;;;5037005;28;20037;-69
2022/07/28 12:12:28;;;;;;;4.07;0.57;;;23.40;97.60;;;;;;5036657;28;20423;-71
2022/07/28 12:14:55;;;;;;;3.35;0.73;;;23.60;97.00;;;;;;5036919;28;20041;-70
2022/07/28 12:17:30;;;;;;;2.33;0.70;;;23.40;96.80;;;;;;5036558;28;20049;-69
2022/07/28 12:20:03;;;;;;;4.20;0.60;;;23.20;97.50;;;;;;5036361;28;20088;-72
2022/07/28 12:22:29;;;;;;;1.35;0.70;;;23.00;97.00;;;;;;5036921;28;20442;-69
2022/07/28 12:24:58;;;;;;;6.53;0.70;;;23.00;97.20;;;;;;5036485;28;20073;-69
2022/07/28 12:27:28;;;;;;;2.17;0.60;;;23.10;97.10;;;;;;5036840;28;20047;-69
2022/07/28 12:29:58;;;;;;;4.28;0.60;;;23.00;97.20;;;;;;5036713;28;20083;-69
2022/07/28 12:32:31;;;;;;;2.72;0.57;;;22.70;97.20;;;;;;5036362;28;20033;-70
2022/07/28 12:34:57;;;;;;;4.00;0.52;;;22.50;96.90;;;;;;5036507;28;20033;-69
2022/07/28 12:37:23;;;;;;;1.92;0.57;;;22.50;96.70;;;;;;5036510;28;20033;-70
2022/07/28 12:39:50;;;;;;;2.15;0.50;;;22.30;97.00;;;;;;5036504;28;20308;-69
2022/07/28 12:42:16;;;;;;;3.13;0.52;;;22.40;96.70;;;;;;5036538;28;20041;-69
2022/07/28 12:44:43;;;;;;;2.58;0.50;;;22.40;96.80;;;;;;5036414;28;20041;-69
2022/07/28 12:47:13;;;;;;;2.28;0.70;;;22.50;96.80;;;;;;5040321;28;20045;-69
2022/07/28 12:49:43;;;;;;;1.58;0.40;;;22.70;96.90;;;;;;5043009;28;20044;-69
2022/07/28 12:52:23;;;;;;;1.45;0.47;;;22.60;96.80;;;;;;5042362;28;20041;-69
2022/07/28 12:54:51;;;;;;;3.90;0.68;;;22.60;96.70;;;;;;5042965;28;20045;-69
2022/07/28 12:57:17;;;;;;;4.72;0.55;;;22.50;96.90;;;;;;5043076;28;20033;-69
2022/07/28 12:59:43;;;;;;;1.27;0.43;;;22.90;97.20;;;;;;5042697;28;20060;-69
2022/07/28 13:02:08;;;;;;;1.58;0.43;;;23.10;96.70;;;;;;5043081;28;20061;-69